Aviation Digital Data Service (ADDS)

Output produced by METARs form (2151 UTC 08 August 2020)
found at http://www.aviationweather.gov/metar/data/
 
Forecast for: RJGG (NAGOYA/CHUBU , JP)
Text: TAF RJGG 081705Z 0818/1000 20006KT 9999 FEW020
Forecast period: 1800 UTC 08 August 2020 to 0000 UTC 10 August 2020
Forecast type: FROM: standard forecast or significant change
Winds: from the SSW (200 degrees) at 7 MPH (6 knots; 3.1 m/s)
Visibility: 6 or more miles (10+ km)
Ceiling: at least 12,000 feet AGL
Clouds: few clouds at 2000 feet AGL
Weather: no significant weather forecast for this period